createdAt,value
2022-10-02T00:00:37.677Z,2.65
2022-10-02T00:03:44.161Z,3.70
2022-10-02T00:06:49.582Z,1.95
2022-10-02T00:10:23.694Z,3.35
2022-10-02T00:13:34.385Z,5.90
2022-10-02T00:16:52.792Z,3.45
2022-10-02T00:19:56.507Z,4.25
2022-10-02T00:23:31.971Z,3.90
2022-10-02T00:26:57.315Z,3.17
2022-10-02T00:30:05.344Z,2.15
2022-10-02T00:33:27.880Z,1.58
2022-10-02T00:36:51.399Z,6.25
2022-10-02T00:41:03.665Z,2.10
2022-10-02T00:44:33.597Z,4.82
2022-10-02T00:47:59.358Z,4.30
2022-10-02T00:51:21.660Z,4.25
2022-10-02T00:55:10.042Z,4.15
2022-10-02T00:58:40.318Z,2.25
2022-10-02T01:02:26.290Z,3.67
2022-10-02T01:05:29.591Z,3.60
2022-10-02T01:08:32.578Z,5.65
2022-10-02T01:11:36.909Z,2.92
2022-10-02T01:17:43.214Z,2.00
2022-10-02T01:20:49.004Z,3.58
2022-10-02T01:24:11.608Z,2.13
2022-10-02T01:27:13.754Z,7.38
2022-10-02T01:30:20.538Z,4.57
2022-10-02T01:33:24.364Z,2.83
2022-10-02T01:36:26.993Z,4.30
2022-10-02T01:39:29.569Z,4.05
2022-10-02T01:42:32.143Z,3.00
2022-10-02T01:46:01.312Z,6.45
2022-10-02T01:49:18.605Z,3.95
2022-10-02T01:52:30.506Z,6.65
2022-10-02T01:55:49.539Z,3.40
2022-10-02T01:59:29.929Z,3.47
2022-10-02T02:02:53.175Z,6.32
2022-10-02T02:06:34.128Z,7.18
2022-10-02T02:09:49.182Z,10.10
2022-10-02T02:13:14.387Z,10.85
2022-10-02T02:16:24.038Z,9.95
2022-10-02T02:19:33.219Z,4.22
2022-10-02T02:22:42.330Z,4.13
2022-10-02T02:25:49.578Z,5.38
2022-10-02T02:29:00.240Z,2.45
2022-10-02T02:32:08.638Z,4.20
2022-10-02T02:35:33.271Z,3.10
2022-10-02T02:38:44.493Z,1.65
2022-10-02T02:41:57.606Z,6.72
2022-10-02T02:45:05.461Z,3.72
2022-10-02T02:48:27.439Z,5.63
2022-10-02T02:51:39.302Z,4.28
2022-10-02T02:55:20.618Z,1.70
2022-10-02T02:58:44.568Z,2.40
2022-10-02T03:01:47.236Z,3.47
2022-10-02T03:04:49.363Z,8.27
2022-10-02T03:07:57.003Z,6.30
2022-10-02T03:11:33.818Z,2.55
2022-10-02T03:15:22.951Z,4.38
2022-10-02T03:18:46.581Z,7.30
2022-10-02T03:22:12.154Z,5.05
2022-10-02T03:25:32.101Z,2.83
2022-10-02T03:28:56.278Z,3.20
2022-10-02T03:32:00.202Z,3.45
2022-10-02T03:35:04.843Z,4.27
2022-10-02T03:38:09.796Z,4.75
2022-10-02T03:41:11.883Z,10.50
2022-10-02T03:44:13.924Z,6.07
2022-10-02T03:47:16.543Z,2.40
2022-10-02T03:50:19.141Z,2.67
2022-10-02T03:53:30.623Z,3.97
2022-10-02T03:57:05.003Z,3.15
2022-10-02T04:00:25.007Z,4.53
2022-10-02T04:03:39.934Z,5.30
2022-10-02T04:06:55.058Z,7.20
2022-10-02T04:10:12.952Z,3.40
2022-10-02T04:13:19.955Z,2.90
2022-10-02T04:16:33.606Z,5.32
2022-10-02T04:19:44.652Z,10.05
2022-10-02T04:22:53.044Z,2.78
2022-10-02T04:26:01.296Z,4.70
2022-10-02T04:29:18.461Z,2.08
2022-10-02T04:32:33.471Z,3.33
2022-10-02T04:36:13.819Z,5.38
2022-10-02T04:39:27.999Z,4.68
2022-10-02T04:42:50.726Z,2.90
2022-10-02T04:46:44.391Z,6.97
2022-10-02T04:50:08.072Z,1.80
2022-10-02T04:53:17.975Z,4.78
2022-10-02T04:56:33.378Z,3.40
2022-10-02T04:59:41.626Z,3.42
2022-10-02T05:03:11.222Z,6.30
2022-10-02T05:06:33.349Z,5.97
2022-10-02T05:09:56.110Z,6.05
2022-10-02T05:13:04.836Z,2.40
2022-10-02T05:16:15.938Z,3.95
2022-10-02T05:19:38.968Z,5.32
2022-10-02T05:23:22.675Z,3.65
2022-10-02T05:26:54.005Z,2.17
2022-10-02T05:30:16.799Z,8.18
2022-10-02T05:33:52.142Z,3.03
2022-10-02T05:40:17.778Z,4.22
2022-10-02T05:43:31.479Z,4.70
2022-10-02T05:46:44.125Z,5.05
2022-10-02T05:49:58.507Z,5.53
2022-10-02T05:53:37.335Z,2.95
2022-10-02T05:56:50.815Z,5.38
2022-10-02T06:00:08.660Z,2.25
2022-10-02T06:03:32.574Z,2.83
2022-10-02T06:06:44.967Z,3.33
2022-10-02T06:09:57.744Z,4.10
2022-10-02T06:13:11.525Z,3.65
2022-10-02T06:19:53.436Z,2.58
2022-10-02T06:23:02.042Z,2.30
2022-10-02T06:26:11.366Z,3.58
2022-10-02T06:29:29.465Z,3.22
2022-10-02T06:32:57.044Z,4.15
2022-10-02T06:36:07.711Z,2.38
2022-10-02T06:39:21.728Z,3.17
2022-10-02T06:42:52.962Z,4.93
2022-10-02T06:46:23.033Z,3.38
2022-10-02T06:49:43.847Z,9.15
2022-10-02T06:53:07.121Z,8.48
2022-10-02T06:56:36.362Z,2.83
2022-10-02T06:59:57.088Z,4.68
2022-10-02T07:03:16.836Z,4.90
2022-10-02T07:06:35.066Z,2.78
2022-10-02T07:09:45.775Z,2.80
2022-10-02T07:13:26.109Z,3.72
2022-10-02T07:16:31.215Z,3.03
2022-10-02T07:20:11.246Z,4.80
2022-10-02T07:23:21.683Z,10.40
2022-10-02T07:26:52.450Z,2.88
2022-10-02T07:30:11.516Z,9.88
2022-10-02T07:33:19.762Z,2.78
2022-10-02T07:36:46.017Z,5.38
2022-10-02T07:39:53.894Z,3.03
2022-10-02T07:43:08.731Z,6.35
2022-10-02T07:46:10.832Z,5.47
2022-10-02T07:49:37.447Z,4.68
2022-10-02T07:53:20.680Z,3.55
2022-10-02T07:56:24.943Z,3.20
2022-10-02T07:59:31.747Z,6.97
2022-10-02T08:02:43.215Z,8.73
2022-10-02T08:05:52.664Z,7.30
2022-10-02T08:09:02.401Z,8.00
2022-10-02T08:12:09.458Z,5.38
2022-10-02T08:15:18.019Z,4.72
2022-10-02T08:18:35.393Z,4.82
2022-10-02T08:21:43.337Z,1.08
2022-10-02T08:24:56.593Z,3.47
2022-10-02T08:29:15.380Z,1.40
2022-10-02T08:32:17.421Z,3.67
2022-10-02T08:35:21.170Z,2.65
2022-10-02T08:38:29.430Z,8.52
2022-10-02T08:41:57.602Z,3.60
2022-10-02T08:45:20.536Z,1.75
2022-10-02T08:48:57.418Z,1.58
2022-10-02T08:52:18.020Z,1.17
2022-10-02T08:55:44.215Z,2.80
2022-10-02T08:59:07.701Z,1.42
2022-10-02T09:02:29.716Z,1.70
2022-10-02T09:05:50.680Z,2.58
2022-10-02T09:09:14.228Z,7.60
2022-10-02T09:12:40.763Z,3.30
2022-10-02T09:15:54.554Z,3.95
2022-10-02T09:19:04.075Z,1.00
2022-10-02T09:22:42.319Z,1.25
2022-10-02T09:25:47.094Z,3.35
2022-10-02T09:29:22.343Z,5.10
2022-10-02T09:32:45.986Z,3.53
2022-10-02T09:36:12.117Z,5.38
2022-10-02T09:39:52.483Z,1.20
2022-10-02T09:43:22.027Z,1.73
2022-10-02T09:46:44.835Z,1.65
2022-10-02T09:50:18.488Z,3.88
2022-10-02T09:53:48.331Z,4.03
2022-10-02T09:57:31.213Z,9.10
2022-10-02T10:00:43.416Z,3.22
2022-10-02T10:03:51.631Z,3.35
2022-10-02T10:07:06.785Z,3.40
2022-10-02T10:10:45.764Z,3.60
2022-10-02T10:14:14.791Z,3.60
2022-10-02T10:17:59.787Z,2.10
2022-10-02T10:21:19.321Z,1.80
2022-10-02T10:24:42.217Z,4.15
2022-10-02T10:28:08.663Z,5.43
2022-10-02T10:31:37.324Z,2.10
2022-10-02T10:35:01.299Z,3.22
2022-10-02T10:38:22.945Z,1.52
2022-10-02T10:41:48.499Z,1.80
2022-10-02T10:45:08.757Z,4.05
2022-10-02T10:48:38.820Z,7.70
2022-10-02T10:51:53.201Z,3.50
2022-10-02T10:55:15.421Z,2.78
2022-10-02T10:58:58.050Z,2.47
2022-10-02T11:02:15.578Z,4.45
2022-10-02T11:05:39.699Z,3.30
2022-10-02T11:08:47.560Z,4.22
2022-10-02T11:12:11.376Z,3.08
2022-10-02T11:15:54.859Z,3.45
2022-10-02T11:19:03.197Z,15.15
2022-10-02T11:22:29.400Z,5.35
2022-10-02T11:25:49.521Z,2.70
2022-10-02T11:29:10.070Z,3.85
2022-10-02T11:32:28.363Z,3.80
2022-10-02T11:35:58.528Z,3.17
2022-10-02T11:39:04.614Z,3.58
2022-10-02T11:42:26.518Z,3.03
2022-10-02T11:45:48.140Z,3.40
2022-10-02T11:49:27.637Z,2.95
2022-10-02T11:53:00.702Z,8.48
2022-10-02T11:56:21.307Z,2.40
2022-10-02T11:59:51.007Z,2.65
2022-10-02T12:03:19.970Z,2.30
2022-10-02T12:06:49.524Z,5.20
2022-10-02T12:10:39.681Z,3.58
2022-10-02T12:14:06.360Z,2.78
2022-10-02T12:17:48.368Z,2.40
2022-10-02T12:21:48.781Z,4.43
2022-10-02T12:25:29.758Z,10.13
2022-10-02T12:29:09.415Z,5.45
2022-10-02T12:32:37.635Z,1.88
2022-10-02T12:36:01.379Z,3.58
2022-10-02T12:39:09.319Z,8.60
2022-10-02T12:42:26.848Z,2.13
2022-10-02T12:45:58.835Z,6.32
2022-10-02T12:49:23.849Z,2.85
2022-10-02T12:52:47.638Z,2.50
2022-10-02T12:56:23.654Z,3.13
2022-10-02T12:59:41.841Z,5.25
2022-10-02T13:03:22.234Z,1.33
2022-10-02T13:06:55.132Z,1.50
2022-10-02T13:10:16.965Z,2.58
2022-10-02T13:13:43.833Z,3.38
2022-10-02T13:16:49.087Z,2.85
2022-10-02T13:20:03.469Z,3.45
2022-10-02T13:23:46.266Z,2.55
2022-10-02T13:27:31.421Z,3.85
2022-10-02T13:30:43.566Z,2.35
2022-10-02T13:34:05.545Z,1.50
2022-10-02T13:37:27.185Z,1.33
2022-10-02T13:40:58.191Z,1.58
2022-10-02T13:44:03.466Z,2.13
2022-10-02T13:47:16.045Z,2.80
2022-10-02T13:50:41.166Z,2.78
2022-10-02T13:54:01.862Z,1.38
2022-10-02T13:57:27.990Z,1.77
2022-10-02T14:00:59.035Z,3.45
2022-10-02T14:04:20.081Z,4.15
2022-10-02T14:07:46.801Z,2.50
2022-10-02T14:10:53.562Z,3.40
2022-10-02T14:14:42.323Z,1.02
2022-10-02T14:18:09.561Z,2.28
2022-10-02T14:22:02.322Z,14.23
2022-10-02T14:25:23.401Z,1.80
2022-10-02T14:28:47.066Z,1.90
2022-10-02T14:32:11.153Z,2.17
2022-10-02T14:35:49.271Z,2.60
2022-10-02T14:39:09.611Z,1.88
2022-10-02T14:42:49.009Z,0.85
2022-10-02T14:46:26.170Z,1.42
2022-10-02T14:49:53.321Z,2.42
2022-10-02T14:53:16.505Z,2.60
2022-10-02T14:56:40.327Z,4.03
2022-10-02T14:59:59.951Z,1.58
2022-10-02T15:03:29.679Z,3.63
2022-10-02T15:06:56.662Z,2.90
2022-10-02T15:10:25.333Z,2.28
2022-10-02T15:14:05.518Z,1.55
2022-10-02T15:18:00.212Z,2.38
2022-10-02T15:21:10.421Z,1.23
2022-10-02T15:24:44.678Z,5.25
2022-10-02T15:27:46.687Z,2.33
2022-10-02T15:31:07.723Z,2.30
2022-10-02T15:34:25.035Z,3.33
2022-10-02T15:37:45.724Z,1.25
2022-10-02T15:40:55.940Z,4.03
2022-10-02T15:44:09.668Z,1.33
2022-10-02T15:47:26.609Z,1.10
2022-10-02T15:51:03.259Z,0.93
2022-10-02T15:54:16.849Z,5.80
2022-10-02T15:57:44.009Z,1.52
2022-10-02T16:01:01.098Z,5.35
2022-10-02T16:04:32.533Z,1.90
2022-10-02T16:07:55.117Z,2.58
2022-10-02T16:11:27.418Z,1.33
2022-10-02T16:14:37.014Z,2.05
2022-10-02T16:18:01.156Z,3.20
2022-10-02T16:21:38.518Z,5.18
2022-10-02T16:24:52.226Z,1.70
2022-10-02T16:28:05.707Z,1.95
2022-10-02T16:31:20.361Z,3.00
2022-10-02T16:34:56.279Z,0.73
2022-10-02T16:38:11.122Z,5.63
2022-10-02T16:41:24.587Z,3.05
2022-10-02T16:44:53.005Z,2.92
2022-10-02T16:48:01.135Z,3.50
2022-10-02T16:51:08.657Z,1.73
2022-10-02T16:54:39.741Z,3.72
2022-10-02T16:57:47.226Z,0.98
2022-10-02T17:01:02.210Z,2.65
2022-10-02T17:04:18.583Z,2.85
2022-10-02T17:07:32.489Z,3.33
2022-10-02T17:11:05.764Z,2.60
2022-10-02T17:14:14.908Z,6.50
2022-10-02T17:17:43.793Z,1.73
2022-10-02T17:20:54.220Z,5.68
2022-10-02T17:24:02.182Z,2.20
2022-10-02T17:27:33.714Z,5.53
2022-10-02T17:31:09.953Z,4.13
2022-10-02T17:34:25.010Z,1.90
2022-10-02T17:37:38.906Z,5.00
2022-10-02T17:41:18.817Z,3.72
2022-10-02T17:44:45.311Z,3.05
2022-10-02T17:48:08.421Z,1.85
2022-10-02T17:51:51.289Z,1.38
2022-10-02T17:55:43.488Z,1.52
2022-10-02T17:59:07.483Z,2.97
2022-10-02T18:02:47.167Z,4.88
2022-10-02T18:06:11.556Z,4.75
2022-10-02T18:12:31.251Z,5.10
2022-10-02T18:15:51.054Z,13.57
2022-10-02T18:19:30.305Z,8.88
2022-10-02T18:22:55.661Z,9.52
2022-10-02T18:26:19.115Z,6.68
2022-10-02T18:29:34.711Z,4.63
2022-10-02T18:33:00.502Z,13.38
2022-10-02T18:36:37.466Z,16.40
2022-10-02T18:40:14.014Z,4.25
2022-10-02T18:43:22.130Z,10.73
2022-10-02T18:46:42.347Z,6.95
2022-10-02T18:49:57.505Z,10.05
2022-10-02T18:53:04.805Z,17.88
2022-10-02T18:56:09.349Z,4.50
2022-10-02T18:59:19.749Z,11.25
2022-10-02T19:02:35.213Z,5.70
2022-10-02T19:06:29.538Z,6.25
2022-10-02T19:09:32.132Z,7.38
2022-10-02T19:12:37.556Z,6.30
2022-10-02T19:15:53.644Z,17.20
2022-10-02T19:19:21.650Z,5.57
2022-10-02T19:22:27.982Z,12.18
2022-10-02T19:25:33.328Z,5.85
2022-10-02T19:28:55.470Z,8.35
2022-10-02T19:32:01.134Z,9.95
2022-10-02T19:35:19.499Z,7.43
2022-10-02T19:38:27.874Z,10.55
2022-10-02T19:41:35.964Z,6.43
2022-10-02T19:44:55.631Z,10.88
2022-10-02T19:48:04.677Z,13.75
2022-10-02T19:51:21.491Z,13.63
2022-10-02T19:54:36.954Z,13.95
2022-10-02T19:57:40.676Z,13.75
2022-10-02T20:00:43.153Z,10.77
2022-10-02T20:03:47.359Z,5.68
2022-10-02T20:06:53.743Z,14.35
2022-10-02T20:10:00.570Z,7.70
2022-10-02T20:13:28.169Z,7.43
2022-10-02T20:16:48.775Z,9.75
2022-10-02T20:19:53.642Z,12.85
2022-10-02T20:22:59.253Z,15.85
2022-10-02T20:26:08.792Z,9.50
2022-10-02T20:29:18.054Z,11.82
2022-10-02T20:32:42.328Z,7.50
2022-10-02T20:35:49.438Z,12.68
2022-10-02T20:39:02.166Z,14.07
2022-10-02T20:42:25.809Z,10.32
2022-10-02T20:45:40.777Z,16.92
2022-10-02T20:49:14.597Z,12.05
2022-10-02T20:52:51.912Z,15.90
2022-10-02T20:56:07.291Z,9.00
2022-10-02T20:59:24.156Z,6.47
2022-10-02T21:02:35.465Z,5.25
2022-10-02T21:06:10.516Z,10.73
2022-10-02T21:09:38.978Z,14.27
2022-10-02T21:12:50.409Z,8.05
2022-10-02T21:16:07.690Z,6.65
2022-10-02T21:19:45.460Z,12.48
2022-10-02T21:23:33.529Z,12.55
2022-10-02T21:27:09.774Z,18.52
2022-10-02T21:30:12.728Z,8.93
2022-10-02T21:33:32.077Z,10.95
2022-10-02T21:36:46.633Z,12.93
2022-10-02T21:40:07.097Z,10.20
2022-10-02T21:43:30.480Z,10.55
2022-10-02T21:46:56.941Z,8.20
2022-10-02T21:50:36.750Z,9.98
2022-10-02T21:53:41.655Z,11.32
2022-10-02T21:57:02.682Z,13.05
2022-10-02T22:00:28.544Z,9.27
2022-10-02T22:03:31.455Z,11.68
2022-10-02T22:07:05.509Z,9.20
2022-10-02T22:10:32.776Z,7.83
2022-10-02T22:13:39.749Z,12.95
2022-10-02T22:16:57.253Z,10.60
2022-10-02T22:20:11.389Z,9.30
2022-10-02T22:23:47.466Z,9.10
2022-10-02T22:27:08.223Z,10.57
2022-10-02T22:30:57.567Z,10.45
2022-10-02T22:34:27.261Z,6.88
2022-10-02T22:37:54.943Z,6.30
2022-10-02T22:41:06.820Z,8.38
2022-10-02T22:44:50.118Z,10.27
2022-10-02T22:48:05.174Z,9.75
2022-10-02T22:51:51.743Z,11.90
2022-10-02T22:55:05.783Z,19.25
2022-10-02T22:58:21.116Z,13.00
2022-10-02T23:01:53.644Z,15.00
2022-10-02T23:05:17.244Z,10.18
2022-10-02T23:08:45.265Z,12.52
2022-10-02T23:11:51.497Z,12.48
2022-10-02T23:15:18.291Z,12.70
2022-10-02T23:18:28.396Z,8.98
2022-10-02T23:21:46.383Z,11.25
2022-10-02T23:25:22.687Z,14.60
2022-10-02T23:28:35.441Z,10.40
2022-10-02T23:31:50.050Z,6.85
2022-10-02T23:34:57.496Z,8.05
2022-10-02T23:38:25.415Z,11.90
2022-10-02T23:41:37.460Z,16.95
2022-10-02T23:44:43.163Z,6.25
2022-10-02T23:48:05.642Z,9.32
2022-10-02T23:51:22.115Z,15.40
2022-10-02T23:54:41.945Z,9.40
2022-10-02T23:57:53.403Z,17.15
